Time;durP1;ratioP1;P1;durP2;ratioP2;P2;SDS_P1;SDS_P2;PMS_P1;PMS_P2;Temp;Humidity;BMP_temperature;BMP_pressure;BME280_temperature;BME280_humidity;BME280_pressure;Samples;Min_cycle;Max_cycle;Signal;HPM_P1;HPM_P2
2023/08/15 00:00:15;;;;;;;5.60;3.30;;;;;;;29.37;37.96;101248.27;103961;1284;61381;-82
2023/08/15 00:02:41;;;;;;;5.60;3.20;;;;;;;29.37;37.92;101243.23;104043;1285;61345;-82
2023/08/15 00:05:07;;;;;;;5.00;3.40;;;;;;;29.37;38.14;101244.48;104005;1285;61500;-82
2023/08/15 00:07:33;;;;;;;4.90;3.30;;;;;;;29.37;37.98;101251.02;103868;1285;61492;-82
2023/08/15 00:09:58;;;;;;;4.90;3.30;;;;;;;29.37;37.95;101243.08;103849;1285;61356;-82
2023/08/15 00:12:24;;;;;;;6.00;3.60;;;;;;;29.37;37.89;101237.55;103973;1285;61407;-82
2023/08/15 00:14:50;;;;;;;4.40;3.30;;;;;;;29.37;37.96;101241.05;103916;1284;61378;-82
2023/08/15 00:17:15;;;;;;;4.70;3.30;;;;;;;29.37;37.89;101237.42;103954;1288;63825;-82
2023/08/15 00:19:41;;;;;;;4.50;3.30;;;;;;;29.37;37.81;101236.73;103951;1284;61404;-82
2023/08/15 00:22:06;;;;;;;4.00;3.30;;;;;;;29.36;37.83;101235.30;103870;1284;61443;-82
2023/08/15 00:24:32;;;;;;;5.40;3.20;;;;;;;29.36;38.06;101234.63;103908;1284;62230;-82
2023/08/15 00:26:57;;;;;;;4.30;3.30;;;;;;;29.36;37.79;101242.41;104066;1284;61360;-82
2023/08/15 00:29:23;;;;;;;4.50;3.30;;;;;;;29.36;37.86;101247.88;103990;1285;63759;-82
2023/08/15 00:31:48;;;;;;;4.30;3.30;;;;;;;29.36;37.78;101251.14;103838;1290;61460;-82
2023/08/15 00:34:14;;;;;;;4.80;3.50;;;;;;;29.36;37.97;101254.39;103907;1284;61402;-82
2023/08/15 00:36:40;;;;;;;4.10;3.20;;;;;;;29.35;38.06;101253.69;104017;1285;61518;-82
2023/08/15 00:39:05;;;;;;;4.40;3.30;;;;;;;29.35;37.98;101250.27;103806;1284;62088;-82
2023/08/15 00:41:31;;;;;;;5.30;3.40;;;;;;;29.35;38.03;101245.21;104007;1284;63932;-82
2023/08/15 00:43:58;;;;;;;5.60;3.60;;;;;;;29.36;37.96;101236.29;104097;1284;61430;-82
2023/08/15 00:46:24;;;;;;;4.00;3.20;;;;;;;29.35;37.98;101233.46;104018;1285;61379;-82
2023/08/15 00:48:50;;;;;;;5.00;3.30;;;;;;;29.35;37.92;101229.44;103848;1286;62563;-82
2023/08/15 00:51:16;;;;;;;4.90;3.40;;;;;;;29.35;38.14;101218.96;103926;1284;61464;-82
2023/08/15 00:53:44;;;;;;;4.30;3.30;;;;;;;29.35;38.03;101214.63;103995;1285;65689;-82
2023/08/15 00:56:09;;;;;;;5.40;3.50;;;;;;;29.35;38.15;101213.56;103888;1288;61430;-82
2023/08/15 00:58:39;;;;;;;5.20;3.30;;;;;;;29.34;38.06;101210.89;103910;1285;61350;-82
2023/08/15 01:01:05;;;;;;;4.60;3.20;;;;;;;29.34;38.10;101211.77;103819;1290;61487;-82
2023/08/15 01:03:31;;;;;;;4.90;3.30;;;;;;;29.34;38.05;101208.67;104014;1285;61402;-82
2023/08/15 01:05:56;;;;;;;5.30;3.30;;;;;;;29.34;38.13;101202.92;103737;1284;61969;-82
2023/08/15 01:08:22;;;;;;;5.60;3.80;;;;;;;29.34;38.14;101198.05;103976;1284;61375;-82
2023/08/15 01:10:47;;;;;;;5.00;3.60;;;;;;;29.34;37.90;101197.14;104022;1285;61376;-82
2023/08/15 01:13:29;;;;;;;4.50;3.60;;;;;;;29.33;38.12;101195.54;103992;1284;61369;-82
2023/08/15 01:15:55;;;;;;;4.40;3.50;;;;;;;29.34;38.03;101192.27;103911;1284;66734;-82
2023/08/15 01:18:30;;;;;;;5.90;3.50;;;;;;;29.34;38.10;101186.64;103862;1284;61481;-82
2023/08/15 01:20:56;;;;;;;5.10;3.50;;;;;;;29.32;38.14;101190.73;103963;1284;61327;-83
2023/08/15 01:23:46;;;;;;;4.20;3.40;;;;;;;29.33;38.09;101193.77;103966;1284;62271;-82
2023/08/15 01:26:11;;;;;;;5.40;3.80;;;;;;;29.32;38.16;101193.11;103859;1285;66506;-82
2023/08/15 01:28:38;;;;;;;4.20;3.20;;;;;;;29.33;37.98;101192.85;103802;1284;61497;-79
2023/08/15 01:31:25;;;;;;;4.30;3.40;;;;;;;29.33;38.12;101179.63;103562;1284;61343;-79
2023/08/15 01:34:14;;;;;;;5.90;3.60;;;;;;;29.32;38.09;101166.46;103457;1288;63768;-80
2023/08/15 01:36:44;;;;;;;4.80;3.50;;;;;;;29.32;38.09;101163.09;103556;1286;65779;-80
2023/08/15 01:39:09;;;;;;;4.70;3.40;;;;;;;29.31;37.98;101164.56;103504;1285;61327;-80
2023/08/15 01:41:38;;;;;;;4.30;3.30;;;;;;;29.32;38.05;101168.70;103369;1292;61372;-81
2023/08/15 01:44:04;;;;;;;5.00;3.70;;;;;;;29.32;37.91;101167.81;103425;1284;64976;-80
2023/08/15 01:46:30;;;;;;;4.50;3.50;;;;;;;29.31;37.82;101161.91;103394;1290;61434;-80
2023/08/15 01:48:57;;;;;;;5.60;3.80;;;;;;;29.31;37.91;101150.85;103392;1285;62501;-80
2023/08/15 01:51:23;;;;;;;4.60;3.40;;;;;;;29.30;38.19;101146.92;103531;1284;61263;-80
2023/08/15 01:53:49;;;;;;;5.00;3.60;;;;;;;29.30;38.14;101155.98;103475;1284;61426;-80
2023/08/15 01:56:15;;;;;;;4.60;3.40;;;;;;;29.30;38.00;101159.45;103464;1284;61394;-80
2023/08/15 01:58:41;;;;;;;4.20;3.30;;;;;;;29.30;38.04;101157.83;103600;1285;61444;-80
2023/08/15 02:01:06;;;;;;;5.10;3.40;;;;;;;29.30;38.12;101153.29;103505;1285;61805;-80
2023/08/15 02:03:32;;;;;;;4.40;3.30;;;;;;;29.30;38.20;101155.30;103511;1285;61463;-80
2023/08/15 02:05:57;;;;;;;5.10;3.50;;;;;;;29.29;38.06;101156.61;103470;1287;63753;-80
2023/08/15 02:08:23;;;;;;;5.40;3.20;;;;;;;29.29;38.20;101149.95;103486;1285;61368;-80
2023/08/15 02:10:50;;;;;;;4.80;3.40;;;;;;;29.29;38.00;101138.68;103477;1290;61443;-80
2023/08/15 02:13:16;;;;;;;5.30;3.40;;;;;;;29.28;38.00;101137.85;103489;1284;62234;-80
2023/08/15 02:15:41;;;;;;;5.30;3.60;;;;;;;29.28;38.10;101132.41;103564;1284;61356;-80
2023/08/15 02:18:10;;;;;;;4.50;3.40;;;;;;;29.28;38.09;101132.30;103463;1284;62522;-80
2023/08/15 02:20:37;;;;;;;5.20;3.80;;;;;;;29.28;38.20;101137.38;103624;1285;61297;-80
2023/08/15 02:23:03;;;;;;;4.80;3.50;;;;;;;29.27;38.08;101142.49;103464;1284;61928;-80
2023/08/15 02:25:29;;;;;;;5.00;3.40;;;;;;;29.28;37.98;101149.54;103482;1284;61685;-80
2023/08/15 02:27:54;;;;;;;5.80;3.60;;;;;;;29.27;38.19;101142.67;103507;1289;61341;-80
2023/08/15 02:30:20;;;;;;;5.00;3.30;;;;;;;29.27;37.93;101132.16;103376;1285;61908;-80
2023/08/15 02:32:46;;;;;;;5.60;3.30;;;;;;;29.27;38.01;101126.73;103517;1286;61305;-79
2023/08/15 02:35:13;;;;;;;4.40;3.50;;;;;;;29.27;38.04;101149.05;103509;1285;61408;-80
2023/08/15 02:37:39;;;;;;;5.80;3.40;;;;;;;29.27;38.07;101165.02;103505;1284;63614;-80
2023/08/15 02:40:08;;;;;;;5.10;3.70;;;;;;;29.27;38.18;101153.97;103544;1289;61371;-80
2023/08/15 02:42:34;;;;;;;5.30;3.80;;;;;;;29.27;37.97;101140.76;103265;1290;61478;-80
2023/08/15 02:45:00;;;;;;;4.80;3.40;;;;;;;29.27;38.06;101138.55;103467;1285;61411;-80
2023/08/15 02:47:26;;;;;;;5.00;3.80;;;;;;;29.26;38.16;101141.67;103609;1285;62533;-79
2023/08/15 02:49:51;;;;;;;4.90;3.50;;;;;;;29.27;38.16;101143.96;103332;1284;61418;-79
2023/08/15 02:52:17;;;;;;;5.20;4.10;;;;;;;29.27;38.18;101146.16;103537;1284;61408;-80
2023/08/15 02:54:42;;;;;;;5.10;3.20;;;;;;;29.26;38.02;101154.92;103565;1285;61909;-79
2023/08/15 02:57:08;;;;;;;5.00;3.70;;;;;;;29.26;38.05;101156.95;103539;1284;61369;-80
2023/08/15 02:59:33;;;;;;;5.30;3.80;;;;;;;29.26;38.01;101156.52;103484;1284;61385;-80
2023/08/15 03:01:59;;;;;;;5.70;3.40;;;;;;;29.26;38.01;101149.63;103521;1285;62579;-80
2023/08/15 03:04:24;;;;;;;5.00;3.60;;;;;;;29.27;38.15;101138.20;103584;1290;61744;-80
2023/08/15 03:06:50;;;;;;;6.90;3.70;;;;;;;29.26;38.12;101119.61;103544;1284;62151;-79
2023/08/15 03:09:16;;;;;;;5.90;3.90;;;;;;;29.25;38.08;101113.65;103563;1285;62483;-80
2023/08/15 03:11:42;;;;;;;5.10;3.60;;;;;;;29.26;38.25;101120.86;103539;1285;63937;-80
2023/08/15 03:14:08;;;;;;;4.10;3.20;;;;;;;29.25;38.13;101132.86;103465;1284;61409;-80
2023/08/15 03:16:34;;;;;;;5.60;3.70;;;;;;;29.26;38.09;101152.41;103451;1284;61386;-79
2023/08/15 03:18:59;;;;;;;4.90;3.60;;;;;;;29.25;38.28;101174.55;103497;1285;61392;-80
2023/08/15 03:21:25;;;;;;;4.20;3.20;;;;;;;29.25;38.01;101176.91;103545;1284;61372;-80
2023/08/15 03:23:50;;;;;;;6.20;3.50;;;;;;;29.26;38.13;101167.28;103527;1284;61910;-80
2023/08/15 03:26:16;;;;;;;5.40;3.60;;;;;;;29.25;38.07;101159.70;103486;1285;61415;-80
2023/08/15 03:28:41;;;;;;;5.50;3.60;;;;;;;29.25;38.32;101158.48;103509;1284;61427;-79
2023/08/15 03:31:08;;;;;;;5.40;3.60;;;;;;;29.25;38.18;101155.72;103465;1285;61397;-80
2023/08/15 03:33:34;;;;;;;4.60;3.30;;;;;;;29.25;38.22;101162.82;103519;1285;61993;-80
2023/08/15 03:36:00;;;;;;;4.60;3.50;;;;;;;29.24;38.20;101171.58;103573;1285;61316;-80
2023/08/15 03:38:25;;;;;;;5.40;3.60;;;;;;;29.24;38.12;101154.89;103480;1285;61376;-80
2023/08/15 03:41:01;;;;;;;4.60;3.80;;;;;;;29.25;38.24;101131.85;103531;1284;61419;-80
2023/08/15 03:43:27;;;;;;;4.40;3.50;;;;;;;29.24;38.20;101128.28;103539;1284;61430;-80
2023/08/15 03:45:52;;;;;;;5.10;3.50;;;;;;;29.24;38.10;101117.92;103471;1285;61569;-80
2023/08/15 03:48:18;;;;;;;4.60;3.40;;;;;;;29.24;38.14;101104.17;103483;1284;62875;-80
2023/08/15 03:50:43;;;;;;;4.30;3.30;;;;;;;29.24;38.20;101093.27;103499;1285;61455;-80
2023/08/15 03:53:10;;;;;;;5.50;3.80;;;;;;;29.24;38.23;101083.55;103553;1285;61392;-80
2023/08/15 03:55:36;;;;;;;4.90;3.50;;;;;;;29.24;38.10;101079.33;103492;1284;61908;-80
2023/08/15 03:58:02;;;;;;;4.90;3.50;;;;;;;29.23;38.16;101084.48;103465;1288;63903;-80
2023/08/15 04:00:28;;;;;;;5.30;3.30;;;;;;;29.23;38.22;101104.44;103515;1285;61421;-80
2023/08/15 04:02:53;;;;;;;5.40;3.60;;;;;;;29.23;38.26;101135.59;103384;1284;62183;-79
2023/08/15 04:05:19;;;;;;;5.50;3.70;;;;;;;29.24;38.40;101166.19;103532;1285;61338;-80
2023/08/15 04:07:45;;;;;;;5.10;3.40;;;;;;;29.23;38.33;101177.27;103540;1284;62057;-80
2023/08/15 04:10:13;;;;;;;5.00;3.40;;;;;;;29.24;38.16;101172.69;103533;1287;62087;-80
2023/08/15 04:12:40;;;;;;;4.60;3.30;;;;;;;29.24;38.16;101184.28;103332;1284;65791;-80
2023/08/15 04:15:06;;;;;;;4.60;3.50;;;;;;;29.24;38.27;101205.12;103537;1284;61283;-80
2023/08/15 04:17:32;;;;;;;5.10;3.60;;;;;;;29.24;38.32;101204.94;103398;1285;61372;-79
2023/08/15 04:19:57;;;;;;;5.00;3.30;;;;;;;29.24;38.29;101189.88;103490;1284;61297;-80
2023/08/15 04:22:23;;;;;;;4.70;3.50;;;;;;;29.24;38.10;101161.44;103481;1288;61653;-79
2023/08/15 04:24:48;;;;;;;4.50;3.50;;;;;;;29.24;38.18;101119.77;103531;1284;61318;-80
2023/08/15 04:27:14;;;;;;;5.20;3.80;;;;;;;29.24;38.26;101089.16;103592;1284;61311;-80
2023/08/15 04:29:40;;;;;;;4.80;3.80;;;;;;;29.23;38.21;101087.55;103402;1285;61501;-80
2023/08/15 04:32:06;;;;;;;6.10;3.70;;;;;;;29.24;38.30;101105.83;103386;1285;61391;-80
2023/08/15 04:34:31;;;;;;;5.20;3.60;;;;;;;29.24;38.31;101108.76;103550;1285;61395;-80
2023/08/15 04:36:57;;;;;;;5.30;3.60;;;;;;;29.24;38.26;101121.23;103497;1285;62478;-80
2023/08/15 04:39:22;;;;;;;4.20;3.30;;;;;;;29.24;38.06;101138.63;103535;1285;61414;-80
2023/08/15 04:41:49;;;;;;;4.70;3.60;;;;;;;29.24;38.17;101158.17;103526;1284;61391;-80
2023/08/15 04:44:14;;;;;;;4.80;3.60;;;;;;;29.25;38.25;101173.89;103485;1289;61331;-80
2023/08/15 04:46:40;;;;;;;5.00;3.60;;;;;;;29.24;38.32;101177.05;103472;1285;61389;-80
2023/08/15 04:49:06;;;;;;;4.70;3.50;;;;;;;29.24;38.23;101179.02;103516;1285;61548;-80
2023/08/15 04:51:31;;;;;;;5.50;3.90;;;;;;;29.24;37.93;101187.34;103466;1284;61399;-80
2023/08/15 04:53:57;;;;;;;4.80;3.70;;;;;;;29.25;38.02;101201.99;103491;1289;61720;-80
2023/08/15 04:56:22;;;;;;;4.60;3.50;;;;;;;29.25;38.01;101216.10;103510;1284;61377;-80
2023/08/15 04:58:48;;;;;;;4.50;3.60;;;;;;;29.25;38.13;101229.67;103520;1285;62279;-80
2023/08/15 05:01:13;;;;;;;4.60;3.60;;;;;;;29.25;38.18;101234.91;103522;1288;61453;-80
2023/08/15 05:03:39;;;;;;;4.60;3.30;;;;;;;29.26;38.06;101239.38;103553;1285;61336;-80
2023/08/15 05:06:05;;;;;;;5.80;3.60;;;;;;;29.26;38.08;101242.13;103475;1286;61315;-80
2023/08/15 05:08:30;;;;;;;4.70;3.60;;;;;;;29.25;38.07;101254.48;103452;1285;61394;-80
2023/08/15 05:10:57;;;;;;;5.00;3.50;;;;;;;29.26;38.26;101255.57;103437;1284;62001;-80
2023/08/15 05:13:22;;;;;;;4.50;3.40;;;;;;;29.25;38.24;101251.26;103481;1284;61397;-80
2023/08/15 05:15:48;;;;;;;5.40;4.20;;;;;;;29.26;38.17;101237.20;103574;1285;62492;-80
2023/08/15 05:18:17;;;;;;;4.50;3.30;;;;;;;29.25;38.12;101225.64;103554;1285;61398;-80
2023/08/15 05:20:43;;;;;;;;;;;;;;;29.25;38.20;101224.21;103497;1289;63685;-80
2023/08/15 05:23:08;;;;;;;5.00;3.60;;;;;;;29.23;38.27;101226.41;103559;1285;61398;-80
2023/08/15 05:25:34;;;;;;;5.60;3.80;;;;;;;29.24;38.11;101220.71;103450;1285;61349;-81
2023/08/15 05:28:06;;;;;;;4.60;3.50;;;;;;;29.25;38.13;101219.02;103526;1285;61397;-80
2023/08/15 05:30:34;;;;;;;4.90;3.50;;;;;;;29.24;38.32;101226.49;103527;1285;63584;-80
2023/08/15 05:33:00;;;;;;;5.20;3.70;;;;;;;29.25;38.39;101225.92;103453;1290;65945;-80
2023/08/15 05:35:26;;;;;;;4.70;3.60;;;;;;;29.25;38.26;101225.74;103479;1284;61403;-80
2023/08/15 05:37:51;;;;;;;5.40;3.70;;;;;;;29.24;38.33;101228.86;103515;1290;61339;-80
2023/08/15 05:40:17;;;;;;;5.00;3.80;;;;;;;29.24;38.08;101225.03;103481;1285;61515;-80
2023/08/15 05:42:42;;;;;;;4.80;3.40;;;;;;;29.24;38.30;101216.34;103456;1285;61330;-80
2023/08/15 05:45:08;;;;;;;5.60;3.90;;;;;;;29.24;38.08;101215.07;103531;1285;62505;-80
2023/08/15 05:47:36;;;;;;;4.40;3.30;;;;;;;29.24;38.21;101223.75;103583;1285;61333;-80
2023/08/15 05:50:03;;;;;;;5.60;3.80;;;;;;;29.25;38.21;101229.16;103503;1287;61395;-80
2023/08/15 05:52:29;;;;;;;4.40;3.50;;;;;;;29.25;38.19;101225.84;103399;1285;61427;-80
2023/08/15 05:54:55;;;;;;;4.30;3.40;;;;;;;29.27;37.93;101218.52;103471;1284;61359;-80
2023/08/15 05:57:22;;;;;;;6.50;3.60;;;;;;;29.27;37.94;101221.72;103472;1290;62034;-80
2023/08/15 05:59:48;;;;;;;4.80;3.50;;;;;;;29.27;38.30;101228.77;103541;1284;61431;-80
2023/08/15 06:02:13;;;;;;;4.60;3.40;;;;;;;29.27;38.44;101227.67;103383;1284;61365;-80
2023/08/15 06:04:39;;;;;;;4.40;3.40;;;;;;;29.28;38.26;101228.73;103449;1290;61421;-80
2023/08/15 06:07:05;;;;;;;4.90;3.70;;;;;;;29.28;38.31;101231.99;103417;1285;61484;-80
2023/08/15 06:09:30;;;;;;;4.80;3.40;;;;;;;29.28;38.17;101238.87;103482;1285;61395;-80
2023/08/15 06:11:56;;;;;;;4.70;3.60;;;;;;;29.28;38.14;101245.93;103400;1288;61552;-80
2023/08/15 06:14:21;;;;;;;4.80;3.50;;;;;;;29.28;38.29;101248.62;103522;1285;62557;-80
2023/08/15 06:16:47;;;;;;;5.10;3.50;;;;;;;29.29;38.24;101250.59;103387;1285;61440;-80
2023/08/15 06:19:13;;;;;;;5.10;3.60;;;;;;;29.28;38.23;101250.26;103586;1284;61656;-80
2023/08/15 06:21:41;;;;;;;4.50;3.40;;;;;;;29.28;38.34;101247.55;103582;1285;61470;-80
2023/08/15 06:24:09;;;;;;;4.90;3.70;;;;;;;29.28;38.41;101247.05;103524;1289;62417;-80
2023/08/15 06:26:35;;;;;;;4.50;3.50;;;;;;;29.28;38.21;101251.39;103609;1287;63861;-80
2023/08/15 06:29:01;;;;;;;4.90;3.60;;;;;;;29.28;38.24;101257.00;103391;1284;61399;-80
2023/08/15 06:31:27;;;;;;;6.50;3.90;;;;;;;29.29;38.18;101265.23;103546;1286;61442;-80
2023/08/15 06:33:53;;;;;;;6.20;3.40;;;;;;;29.28;38.36;101258.06;103534;1290;61343;-80
2023/08/15 06:36:18;;;;;;;5.70;3.70;;;;;;;29.29;38.36;101249.84;103562;1285;61463;-80
2023/08/15 06:38:44;;;;;;;5.10;3.70;;;;;;;29.29;38.12;101247.80;103537;1284;61386;-80
2023/08/15 06:41:11;;;;;;;4.70;3.60;;;;;;;29.29;38.27;101243.70;103264;1289;407826;-80
2023/08/15 06:43:37;;;;;;;5.10;3.70;;;;;;;29.29;38.18;101249.48;103408;1287;61424;-80
2023/08/15 06:46:03;;;;;;;5.10;3.80;;;;;;;29.29;38.26;101250.59;103506;1284;61333;-80
2023/08/15 06:48:29;;;;;;;4.90;3.70;;;;;;;29.28;38.27;101248.98;103451;1289;61333;-80
2023/08/15 06:50:55;;;;;;;4.40;3.50;;;;;;;29.28;38.16;101248.08;103532;1289;61977;-80
2023/08/15 06:53:20;;;;;;;5.40;3.60;;;;;;;29.29;38.32;101258.20;103531;1289;61466;-80
2023/08/15 06:55:48;;;;;;;5.20;3.80;;;;;;;29.29;38.26;101269.99;103508;1285;61395;-80
2023/08/15 06:58:14;;;;;;;4.50;3.40;;;;;;;29.28;38.26;101266.56;103545;1285;61283;-80
2023/08/15 07:00:39;;;;;;;4.70;3.60;;;;;;;29.29;38.14;101267.39;103463;1285;61377;-80
2023/08/15 07:03:05;;;;;;;5.20;4.00;;;;;;;29.29;38.31;101274.52;103503;1289;61481;-80
2023/08/15 07:05:31;;;;;;;4.80;3.50;;;;;;;29.29;38.37;101275.44;103519;1288;62613;-80
2023/08/15 07:07:59;;;;;;;4.70;3.40;;;;;;;29.29;38.27;101268.70;103552;1285;61295;-80
2023/08/15 07:10:25;;;;;;;5.20;3.80;;;;;;;29.29;38.33;101254.51;103547;1284;63953;-80
2023/08/15 07:12:51;;;;;;;4.80;3.40;;;;;;;29.30;38.26;101235.06;103537;1285;61294;-80
2023/08/15 07:15:16;;;;;;;4.40;3.50;;;;;;;29.31;38.25;101229.34;103467;1284;61394;-80
2023/08/15 07:17:42;;;;;;;6.60;3.70;;;;;;;29.31;38.19;101219.71;103493;1284;61796;-80
2023/08/15 07:20:09;;;;;;;5.20;3.70;;;;;;;29.32;38.20;101223.06;103461;1284;61456;-80
2023/08/15 07:22:35;;;;;;;5.20;3.80;;;;;;;29.32;38.18;101241.23;103486;1285;61287;-80
2023/08/15 07:25:01;;;;;;;4.60;3.50;;;;;;;29.32;38.16;101246.07;103589;1285;61479;-80
2023/08/15 07:27:27;;;;;;;4.60;3.70;;;;;;;29.33;38.07;101236.38;103388;1285;61358;-80
2023/08/15 07:29:53;;;;;;;5.10;3.60;;;;;;;29.34;38.14;101225.06;104073;1284;61368;-81
2023/08/15 07:32:18;;;;;;;5.10;3.80;;;;;;;29.34;38.20;101216.83;104204;1284;70426;-82
2023/08/15 07:34:45;;;;;;;4.60;3.60;;;;;;;29.34;38.24;101209.02;104347;1284;61393;-81
2023/08/15 07:37:10;;;;;;;4.80;3.30;;;;;;;29.35;38.12;101208.77;103889;1289;63804;-80
2023/08/15 07:39:36;;;;;;;5.10;3.60;;;;;;;29.36;38.17;101223.15;103736;1285;61361;-81
2023/08/15 07:42:01;;;;;;;5.40;3.70;;;;;;;29.37;37.97;101227.23;103491;1288;61392;-81
2023/08/15 07:44:27;;;;;;;4.60;3.60;;;;;;;29.38;38.25;101235.52;103676;1290;61519;-80
2023/08/15 07:46:53;;;;;;;4.60;3.50;;;;;;;29.39;38.10;101251.20;103387;1288;65669;-80
2023/08/15 07:49:18;;;;;;;5.80;4.00;;;;;;;29.39;38.18;101259.14;103322;1288;61409;-80
2023/08/15 07:51:44;;;;;;;4.80;3.70;;;;;;;29.39;38.22;101259.85;103389;1288;61404;-80
2023/08/15 07:54:10;;;;;;;4.90;3.50;;;;;;;29.39;38.21;101266.15;103391;1290;61838;-80
2023/08/15 07:56:36;;;;;;;5.00;3.80;;;;;;;29.40;38.25;101264.45;103388;1288;61310;-80
2023/08/15 07:59:03;;;;;;;4.90;3.90;;;;;;;29.41;38.12;101259.64;103780;1288;61395;-80
2023/08/15 08:01:28;;;;;;;4.50;3.70;;;;;;;29.41;38.16;101256.39;103567;1285;61300;-80
2023/08/15 08:03:55;;;;;;;4.60;3.70;;;;;;;29.41;38.13;101255.70;103547;1287;61292;-80
2023/08/15 08:06:21;;;;;;;5.10;3.90;;;;;;;29.41;38.14;101254.41;103506;1290;62440;-80
2023/08/15 08:08:48;;;;;;;5.20;4.10;;;;;;;29.41;38.14;101256.05;103441;1291;61415;-80
2023/08/15 08:11:13;;;;;;;5.50;3.60;;;;;;;29.41;38.14;101254.39;103397;1286;62465;-80
2023/08/15 08:13:39;;;;;;;4.80;3.70;;;;;;;29.42;37.95;101251.94;103519;1288;61396;-80
2023/08/15 08:16:04;;;;;;;5.30;3.90;;;;;;;29.42;38.08;101259.91;103347;1293;62704;-80
2023/08/15 08:18:30;;;;;;;4.80;3.60;;;;;;;29.43;38.30;101268.88;103361;1288;61453;-80
2023/08/15 08:20:56;;;;;;;4.70;3.70;;;;;;;29.43;38.16;101273.08;103292;1287;65641;-80
2023/08/15 08:23:23;;;;;;;4.60;3.80;;;;;;;29.43;38.08;101264.53;103303;1291;61450;-80
2023/08/15 08:25:49;;;;;;;5.50;4.00;;;;;;;29.43;38.16;101256.58;103414;1290;61310;-80
2023/08/15 08:28:16;;;;;;;5.30;4.10;;;;;;;29.43;38.18;101241.19;103335;1290;61427;-80
2023/08/15 08:30:44;;;;;;;5.20;3.50;;;;;;;29.42;38.10;101248.83;103433;1288;61399;-80
2023/08/15 08:33:09;;;;;;;4.60;3.50;;;;;;;29.42;38.17;101264.25;103460;1288;61335;-80
2023/08/15 08:35:36;;;;;;;4.70;3.70;;;;;;;29.42;38.15;101267.28;103416;1290;61266;-80
2023/08/15 08:38:02;;;;;;;6.00;3.90;;;;;;;29.43;38.18;101259.07;103375;1288;61381;-80
2023/08/15 08:40:28;;;;;;;5.10;3.80;;;;;;;29.44;38.26;101258.84;103307;1288;61386;-80
2023/08/15 08:42:54;;;;;;;4.90;3.80;;;;;;;29.44;37.98;101257.34;103401;1286;61395;-80
2023/08/15 08:45:23;;;;;;;4.70;3.60;;;;;;;29.44;38.08;101251.22;103428;1290;61308;-80
2023/08/15 08:47:49;;;;;;;5.00;3.90;;;;;;;29.44;38.11;101246.13;103472;1290;64851;-80
2023/08/15 08:50:15;;;;;;;5.50;3.70;;;;;;;29.44;38.11;101247.79;103368;1290;61381;-80
2023/08/15 08:52:41;;;;;;;5.00;3.80;;;;;;;29.44;38.00;101246.70;103309;1288;61435;-80
2023/08/15 08:55:08;;;;;;;4.50;3.80;;;;;;;29.44;38.21;101247.98;103440;1288;61392;-80
2023/08/15 08:57:33;;;;;;;5.30;3.90;;;;;;;29.44;38.20;101245.78;103450;1286;61715;-81
2023/08/15 08:59:59;;;;;;;4.60;3.70;;;;;;;29.44;38.08;101247.95;103384;1290;61370;-80
2023/08/15 09:02:25;;;;;;;5.70;3.60;;;;;;;29.44;38.04;101247.96;103579;1286;61600;-81
2023/08/15 09:04:54;;;;;;;5.30;3.90;;;;;;;29.44;38.07;101237.83;103551;1290;62080;-80
2023/08/15 09:07:21;;;;;;;5.20;3.80;;;;;;;29.43;38.22;101228.98;103348;1290;61733;-80
2023/08/15 09:09:46;;;;;;;5.20;3.80;;;;;;;29.43;38.15;101216.44;103221;1291;63829;-80
2023/08/15 09:12:33;;;;;;;4.90;3.60;;;;;;;29.44;38.10;101209.67;103430;1290;61389;-80
2023/08/15 09:14:58;;;;;;;5.20;4.00;;;;;;;29.44;38.08;101207.88;103312;1286;62347;-80
2023/08/15 09:17:24;;;;;;;4.80;3.80;;;;;;;29.44;38.22;101206.99;103414;1286;62092;-80
2023/08/15 09:19:49;;;;;;;5.40;4.10;;;;;;;29.45;38.14;101212.91;103543;1286;62548;-80
2023/08/15 09:22:26;;;;;;;4.90;3.70;;;;;;;29.44;38.19;101211.48;103340;1288;61575;-80
2023/08/15 09:24:53;;;;;;;5.10;3.90;;;;;;;29.44;38.16;101200.65;103370;1291;61397;-80
2023/08/15 09:27:18;;;;;;;5.50;3.70;;;;;;;29.45;38.09;101188.40;103449;1290;61452;-80
2023/08/15 09:29:44;;;;;;;4.70;4.10;;;;;;;29.45;38.09;101176.05;103340;1286;61383;-80
2023/08/15 09:32:09;;;;;;;5.50;3.80;;;;;;;29.45;38.21;101160.23;103264;1291;62068;-80
2023/08/15 09:34:35;;;;;;;4.50;3.60;;;;;;;29.45;38.08;101152.64;103428;1290;61435;-81
2023/08/15 09:37:01;;;;;;;5.00;4.00;;;;;;;29.46;38.15;101149.32;103374;1290;61482;-80
2023/08/15 09:39:27;;;;;;;5.70;3.70;;;;;;;29.45;38.07;101157.17;103306;1290;61364;-80
2023/08/15 09:41:53;;;;;;;4.50;3.80;;;;;;;29.46;37.93;101153.67;103216;1293;64751;-80
2023/08/15 09:44:37;;;;;;;5.00;3.80;;;;;;;29.46;38.12;101150.72;103279;1287;61497;-80
2023/08/15 09:47:03;;;;;;;4.80;3.70;;;;;;;29.46;38.25;101144.93;103457;1286;61290;-81
2023/08/15 09:49:29;;;;;;;5.50;3.90;;;;;;;29.46;38.36;101139.85;103311;1290;63321;-80
2023/08/15 09:51:57;;;;;;;5.10;3.70;;;;;;;29.46;37.96;101141.50;103338;1292;61352;-80
2023/08/15 09:54:22;;;;;;;5.10;3.90;;;;;;;29.47;38.09;101137.63;103283;1287;62513;-80
2023/08/15 09:56:48;;;;;;;4.50;4.00;;;;;;;29.47;38.07;101135.09;103268;1286;61358;-80
2023/08/15 09:59:13;;;;;;;4.60;3.80;;;;;;;29.47;38.10;101134.88;103378;1286;62249;-80
2023/08/15 10:01:39;;;;;;;5.00;3.70;;;;;;;29.47;38.10;101134.17;103383;1290;61430;-80
2023/08/15 10:04:10;;;;;;;5.00;3.80;;;;;;;29.47;38.15;101124.73;103430;1291;61319;-80
2023/08/15 10:06:40;;;;;;;4.30;3.50;;;;;;;29.47;38.19;101115.36;103305;1288;66078;-80
2023/08/15 10:09:05;;;;;;;5.30;3.90;;;;;;;29.47;38.20;101116.77;103374;1288;61318;-80
2023/08/15 10:11:33;;;;;;;5.10;3.80;;;;;;;29.47;37.99;101114.17;103325;1286;62470;-80
2023/08/15 10:13:59;;;;;;;5.30;4.30;;;;;;;29.47;37.99;101114.41;103371;1285;63695;-80
2023/08/15 10:16:24;;;;;;;5.60;4.10;;;;;;;29.47;37.93;101116.19;103335;1287;61457;-80
2023/08/15 10:18:56;;;;;;;5.70;3.70;;;;;;;29.48;38.06;101120.52;103439;1288;61384;-80
2023/08/15 10:21:23;;;;;;;4.80;3.70;;;;;;;29.47;38.12;101119.85;103393;1290;61347;-80
2023/08/15 10:23:50;;;;;;;6.00;4.30;;;;;;;29.47;38.02;101123.23;103548;1286;63796;-80
2023/08/15 10:26:15;;;;;;;5.30;4.00;;;;;;;29.48;37.96;101120.85;103108;1288;61305;-80
2023/08/15 10:28:43;;;;;;;5.90;3.70;;;;;;;29.48;38.04;101115.92;103210;1291;61377;-80
2023/08/15 10:31:09;;;;;;;5.50;4.20;;;;;;;29.48;38.11;101119.90;103270;1288;61329;-80
2023/08/15 10:33:34;;;;;;;5.70;4.10;;;;;;;29.48;38.09;101122.65;103354;1288;61408;-80
2023/08/15 10:36:00;;;;;;;5.00;4.00;;;;;;;29.49;38.09;101117.86;103435;1288;61380;-80
2023/08/15 10:38:27;;;;;;;4.70;3.90;;;;;;;29.48;38.14;101124.42;103471;1288;63401;-80
2023/08/15 10:41:00;;;;;;;4.90;3.70;;;;;;;29.49;38.04;101128.91;103517;1288;61758;-80
2023/08/15 10:43:27;;;;;;;5.30;4.00;;;;;;;29.49;37.98;101129.29;103406;1290;63877;-80
2023/08/15 10:45:57;;;;;;;5.30;4.30;;;;;;;29.49;38.13;101115.31;103416;1286;65655;-80
2023/08/15 10:48:50;;;;;;;6.20;4.30;;;;;;;29.49;38.06;101105.73;103514;1289;61396;-80
2023/08/15 10:51:17;;;;;;;5.20;4.00;;;;;;;29.48;38.02;101116.49;103476;1286;61279;-80
2023/08/15 10:53:46;;;;;;;5.40;3.70;;;;;;;29.48;37.95;101115.34;103467;1288;63920;-80
2023/08/15 10:56:11;;;;;;;5.20;3.90;;;;;;;29.48;37.96;101122.96;103429;1287;65820;-80
2023/08/15 10:58:37;;;;;;;5.00;4.10;;;;;;;29.49;38.01;101113.85;103453;1291;62483;-80
2023/08/15 11:01:03;;;;;;;5.80;4.10;;;;;;;29.48;37.88;101096.27;103315;1287;61412;-80
2023/08/15 11:03:30;;;;;;;4.60;3.80;;;;;;;29.48;37.92;101083.42;103342;1290;61970;-80
2023/08/15 11:06:07;;;;;;;4.90;4.00;;;;;;;29.49;38.09;101078.15;103478;1291;61443;-80
2023/08/15 11:08:32;;;;;;;5.10;3.90;;;;;;;29.49;38.06;101082.28;103460;1290;61306;-80
2023/08/15 11:10:58;;;;;;;5.00;4.00;;;;;;;29.49;38.08;101085.54;103472;1287;61406;-80
2023/08/15 11:13:23;;;;;;;5.30;4.10;;;;;;;29.49;38.18;101091.87;103466;1291;62073;-80